createdAt,value
2023-01-09T00:00:29.740Z,6.20
2023-01-09T00:02:56.526Z,6.00
2023-01-09T00:05:23.248Z,6.00
2023-01-09T00:07:49.789Z,6.10
2023-01-09T00:10:16.511Z,6.30
2023-01-09T00:12:43.057Z,6.60
2023-01-09T00:15:10.728Z,6.50
2023-01-09T00:17:37.425Z,6.50
2023-01-09T00:20:06.668Z,7.00
2023-01-09T00:22:33.192Z,7.10
2023-01-09T00:24:59.736Z,7.40
2023-01-09T00:27:26.326Z,7.40
2023-01-09T00:29:52.905Z,7.10
2023-01-09T00:32:20.278Z,7.30
2023-01-09T00:34:47.440Z,7.60
2023-01-09T00:37:14.004Z,7.70
2023-01-09T00:39:41.596Z,7.60
2023-01-09T00:42:11.385Z,7.70
2023-01-09T00:44:51.144Z,7.80
2023-01-09T00:47:21.731Z,7.70
2023-01-09T00:49:48.543Z,7.70
2023-01-09T00:52:15.462Z,7.70
2023-01-09T00:54:42.099Z,6.90
2023-01-09T00:57:11.595Z,6.30
2023-01-09T00:59:38.487Z,6.20
2023-01-09T01:02:05.279Z,6.30
2023-01-09T01:04:50.361Z,6.70
2023-01-09T01:07:35.691Z,6.60
2023-01-09T01:10:02.558Z,7.00
2023-01-09T01:12:29.061Z,7.20
2023-01-09T01:14:55.633Z,7.10
2023-01-09T01:17:22.340Z,7.30
2023-01-09T01:19:49.067Z,7.20
2023-01-09T01:22:15.705Z,6.60
2023-01-09T01:24:42.438Z,6.50
2023-01-09T01:27:09.042Z,6.20
2023-01-09T01:29:35.565Z,6.00
2023-01-09T01:32:02.199Z,5.80
2023-01-09T01:34:29.420Z,5.30
2023-01-09T01:36:55.939Z,5.50
2023-01-09T01:39:22.575Z,5.40
2023-01-09T01:41:49.274Z,5.70
2023-01-09T01:44:53.566Z,5.60
2023-01-09T01:47:21.714Z,5.60
2023-01-09T01:49:48.499Z,5.40
2023-01-09T01:52:15.713Z,5.50
2023-01-09T01:54:43.319Z,5.60
2023-01-09T01:57:09.895Z,5.70
2023-01-09T01:59:52.328Z,5.40
2023-01-09T02:02:21.224Z,5.60
2023-01-09T02:04:48.814Z,5.60
2023-01-09T02:07:15.457Z,5.40
2023-01-09T02:09:44.485Z,5.20
2023-01-09T02:12:24.186Z,5.20
2023-01-09T02:14:58.372Z,5.10
2023-01-09T02:17:36.373Z,5.00
2023-01-09T02:20:17.481Z,5.20
2023-01-09T02:23:08.924Z,5.10
2023-01-09T02:26:02.116Z,4.90
2023-01-09T02:28:47.218Z,5.10
2023-01-09T02:31:17.572Z,5.00
2023-01-09T02:33:52.594Z,5.00
2023-01-09T02:36:45.941Z,4.90
2023-01-09T02:39:17.936Z,4.90
2023-01-09T02:41:59.698Z,5.20
2023-01-09T02:44:28.146Z,5.50
2023-01-09T02:47:06.573Z,5.70
2023-01-09T02:49:35.201Z,5.80
2023-01-09T02:52:07.095Z,6.00
2023-01-09T02:54:52.515Z,5.90
2023-01-09T02:57:41.985Z,5.80
2023-01-09T03:00:10.832Z,6.20
2023-01-09T03:03:09.844Z,6.20
2023-01-09T03:05:44.087Z,6.40
2023-01-09T03:08:17.148Z,6.60
2023-01-09T03:10:57.061Z,6.80
2023-01-09T03:13:25.146Z,6.90
2023-01-09T03:15:54.047Z,6.60
2023-01-09T03:18:23.299Z,6.50
2023-01-09T03:20:51.179Z,6.80
2023-01-09T03:23:17.765Z,6.70
2023-01-09T03:25:44.365Z,6.40
2023-01-09T03:28:26.466Z,6.70
2023-01-09T03:30:53.079Z,6.80
2023-01-09T03:33:20.260Z,6.90
2023-01-09T03:35:47.013Z,6.90
2023-01-09T03:38:13.697Z,7.10
2023-01-09T03:40:40.655Z,7.00
2023-01-09T03:43:07.246Z,7.20
2023-01-09T03:45:33.796Z,7.10
2023-01-09T03:48:00.389Z,6.70
2023-01-09T03:50:27.002Z,6.50
2023-01-09T03:52:53.561Z,6.30
2023-01-09T03:55:20.088Z,6.50
2023-01-09T03:57:46.676Z,6.00
2023-01-09T04:00:13.718Z,5.90
2023-01-09T04:02:40.317Z,6.10
2023-01-09T04:05:07.592Z,6.20
2023-01-09T04:07:34.217Z,6.20
2023-01-09T04:10:00.774Z,6.40
2023-01-09T04:12:27.372Z,6.30
2023-01-09T04:14:53.928Z,6.40
2023-01-09T04:17:20.529Z,6.70
2023-01-09T04:19:47.089Z,6.50
2023-01-09T04:22:13.643Z,6.60
2023-01-09T04:24:40.180Z,6.40
2023-01-09T04:27:06.716Z,6.50
2023-01-09T04:29:33.244Z,6.50
2023-01-09T04:31:59.797Z,6.50
2023-01-09T04:34:27.456Z,6.50
2023-01-09T04:36:54.784Z,6.90
2023-01-09T04:39:21.723Z,7.00
2023-01-09T04:41:50.989Z,6.90
2023-01-09T04:44:19.400Z,6.90
2023-01-09T04:46:46.034Z,7.00
2023-01-09T04:49:12.664Z,7.20
2023-01-09T04:51:39.276Z,7.20
2023-01-09T04:54:06.049Z,7.30
2023-01-09T04:56:32.687Z,7.40
2023-01-09T04:58:59.235Z,7.50
2023-01-09T05:01:25.923Z,7.40
2023-01-09T05:03:52.544Z,7.30
2023-01-09T05:06:19.069Z,7.00
2023-01-09T05:08:45.998Z,7.00
2023-01-09T05:11:12.503Z,7.20
2023-01-09T05:13:39.034Z,6.90
2023-01-09T05:16:05.944Z,7.00
2023-01-09T05:18:32.613Z,6.70
2023-01-09T05:20:59.148Z,6.50
2023-01-09T05:23:25.744Z,6.40
2023-01-09T05:25:52.336Z,6.50
2023-01-09T05:28:18.890Z,6.40
2023-01-09T05:30:46.983Z,6.70
2023-01-09T05:33:13.617Z,7.00
2023-01-09T05:35:40.206Z,7.30
2023-01-09T05:38:06.754Z,7.40
2023-01-09T05:40:40.121Z,7.60
2023-01-09T05:43:07.602Z,7.40
2023-01-09T05:45:34.570Z,6.90
2023-01-09T05:48:01.352Z,7.00
2023-01-09T05:50:28.073Z,6.40
2023-01-09T05:52:54.703Z,6.30
2023-01-09T05:55:21.358Z,6.30
2023-01-09T05:57:48.017Z,6.20
2023-01-09T06:00:15.366Z,6.40
2023-01-09T06:02:42.197Z,6.00
2023-01-09T06:05:09.553Z,6.00
2023-01-09T06:07:39.265Z,6.00
2023-01-09T06:10:06.831Z,6.10
2023-01-09T06:12:33.465Z,6.20
2023-01-09T06:15:00.006Z,6.10
2023-01-09T06:17:26.560Z,6.20
2023-01-09T06:19:53.055Z,6.30
2023-01-09T06:22:19.758Z,6.20
2023-01-09T06:24:46.292Z,6.20
2023-01-09T06:27:13.127Z,6.50
2023-01-09T06:29:40.111Z,6.50
2023-01-09T06:32:06.907Z,6.30
2023-01-09T06:34:33.453Z,6.30
2023-01-09T06:37:00.045Z,6.60
2023-01-09T06:39:26.614Z,6.60
2023-01-09T06:41:53.169Z,6.70
2023-01-09T06:44:19.802Z,6.80
2023-01-09T06:46:46.420Z,6.90
2023-01-09T06:49:12.911Z,6.80
2023-01-09T06:51:39.578Z,6.90
2023-01-09T06:54:06.140Z,6.80
2023-01-09T06:56:32.795Z,6.80
2023-01-09T06:59:01.126Z,6.80
2023-01-09T07:01:28.750Z,6.70
2023-01-09T07:03:55.530Z,6.60
2023-01-09T07:06:22.771Z,6.50
2023-01-09T07:08:49.304Z,6.60
2023-01-09T07:11:15.990Z,6.70
2023-01-09T07:13:42.632Z,6.80
2023-01-09T07:16:09.371Z,6.80
2023-01-09T07:18:36.981Z,7.10
2023-01-09T07:21:05.850Z,7.00
2023-01-09T07:23:32.404Z,7.10
2023-01-09T07:25:59.742Z,7.00
2023-01-09T07:28:26.548Z,7.10
2023-01-09T07:30:53.244Z,7.00
2023-01-09T07:33:19.800Z,7.00
2023-01-09T07:35:46.488Z,6.80
2023-01-09T07:38:13.143Z,6.40
2023-01-09T07:40:39.631Z,6.30
2023-01-09T07:43:06.239Z,6.40
2023-01-09T07:45:32.875Z,6.70
2023-01-09T07:47:59.519Z,6.70
2023-01-09T07:50:26.258Z,6.90
2023-01-09T07:52:52.759Z,7.00
2023-01-09T07:55:19.238Z,6.80
2023-01-09T07:57:50.283Z,6.60
2023-01-09T08:00:18.657Z,6.60
2023-01-09T08:02:45.205Z,6.60
2023-01-09T08:05:15.010Z,6.50
2023-01-09T08:07:41.847Z,6.60
2023-01-09T08:10:10.429Z,6.30
2023-01-09T08:12:37.086Z,6.30
2023-01-09T08:15:03.938Z,6.10
2023-01-09T08:17:30.592Z,6.10
2023-01-09T08:19:57.317Z,6.10
2023-01-09T08:22:23.979Z,6.20
2023-01-09T08:24:50.555Z,6.00
2023-01-09T08:27:17.307Z,5.90
2023-01-09T08:29:43.956Z,6.00
2023-01-09T08:32:10.509Z,6.10
2023-01-09T08:34:37.145Z,6.10
2023-01-09T08:37:03.877Z,6.00
2023-01-09T08:39:30.413Z,5.90
2023-01-09T08:42:15.582Z,6.10
2023-01-09T08:45:00.561Z,6.20
2023-01-09T08:47:28.692Z,6.60
2023-01-09T08:49:55.242Z,6.40
2023-01-09T08:52:22.168Z,6.40
2023-01-09T08:54:54.595Z,6.30
2023-01-09T08:57:21.578Z,6.40
2023-01-09T08:59:48.192Z,6.30
2023-01-09T09:02:14.851Z,6.40
2023-01-09T09:04:41.787Z,6.50
2023-01-09T09:07:08.598Z,6.40
2023-01-09T09:09:38.593Z,6.50
2023-01-09T09:12:05.834Z,6.50
2023-01-09T09:14:51.043Z,6.70
2023-01-09T09:17:17.556Z,6.70
2023-01-09T09:19:44.059Z,6.60
2023-01-09T09:22:12.428Z,6.70
2023-01-09T09:24:39.005Z,6.60
2023-01-09T09:27:05.468Z,6.40
2023-01-09T09:29:34.923Z,6.60
2023-01-09T09:32:01.438Z,6.60
2023-01-09T09:34:28.010Z,6.60
2023-01-09T09:36:54.674Z,6.70
2023-01-09T09:39:21.239Z,6.60
2023-01-09T09:42:06.008Z,6.60
2023-01-09T09:44:52.663Z,6.50
2023-01-09T09:47:45.663Z,6.60
2023-01-09T09:50:34.779Z,6.50
2023-01-09T09:53:10.396Z,6.60
2023-01-09T09:55:41.627Z,6.50
2023-01-09T09:58:29.737Z,6.60
2023-01-09T10:00:57.719Z,6.60
2023-01-09T10:03:44.853Z,6.60
2023-01-09T10:06:27.028Z,6.70
2023-01-09T10:09:02.688Z,6.70
2023-01-09T10:11:44.738Z,6.80
2023-01-09T10:14:23.381Z,6.80
2023-01-09T10:17:26.794Z,6.80
2023-01-09T10:20:35.035Z,6.90
2023-01-09T10:23:37.467Z,7.00
2023-01-09T10:26:12.181Z,7.20
2023-01-09T10:28:59.817Z,7.10
2023-01-09T10:31:37.830Z,7.00
2023-01-09T10:34:34.561Z,7.10
2023-01-09T10:37:47.716Z,7.10
2023-01-09T10:40:22.866Z,7.40
2023-01-09T10:43:12.726Z,7.20
2023-01-09T10:45:53.919Z,7.20
2023-01-09T10:48:23.480Z,7.60
2023-01-09T10:50:52.287Z,7.70
2023-01-09T10:53:30.390Z,7.70
2023-01-09T10:56:27.653Z,7.60
2023-01-09T10:58:55.487Z,7.70
2023-01-09T11:01:34.091Z,7.70
2023-01-09T11:04:02.282Z,7.80
2023-01-09T11:06:47.500Z,7.80
2023-01-09T11:09:16.389Z,7.90
2023-01-09T11:11:42.967Z,8.00
2023-01-09T11:14:31.826Z,8.30
2023-01-09T11:17:02.291Z,8.30
2023-01-09T11:19:31.449Z,8.50
2023-01-09T11:22:10.057Z,8.50
2023-01-09T11:24:36.594Z,8.60
2023-01-09T11:27:15.186Z,8.60
2023-01-09T11:29:44.920Z,8.70
2023-01-09T11:32:24.103Z,8.70
2023-01-09T11:34:51.701Z,8.70
2023-01-09T11:37:25.244Z,8.80
2023-01-09T11:40:00.140Z,8.70
2023-01-09T11:42:47.173Z,9.00
2023-01-09T11:45:20.457Z,8.90
2023-01-09T11:47:47.658Z,8.90
2023-01-09T11:50:20.555Z,9.00
2023-01-09T11:52:50.081Z,8.70
2023-01-09T11:55:17.125Z,8.80
2023-01-09T11:57:43.725Z,8.80
2023-01-09T12:00:28.473Z,9.20
2023-01-09T12:03:29.680Z,9.00
2023-01-09T12:06:45.066Z,9.30
2023-01-09T12:09:55.563Z,9.40
2023-01-09T12:12:29.175Z,9.60
2023-01-09T12:15:07.602Z,9.00
2023-01-09T12:18:00.350Z,9.20
2023-01-09T12:20:44.753Z,9.00
2023-01-09T12:23:24.727Z,9.30
2023-01-09T12:26:11.272Z,9.70
2023-01-09T12:28:55.751Z,9.10
2023-01-09T12:31:36.720Z,8.90
2023-01-09T12:34:29.336Z,9.30
2023-01-09T12:37:19.488Z,9.70
2023-01-09T12:39:58.109Z,10.00
2023-01-09T12:42:30.503Z,10.60
2023-01-09T12:45:19.068Z,11.10
2023-01-09T12:47:46.130Z,11.90
2023-01-09T12:50:31.458Z,11.90
2023-01-09T12:53:17.016Z,12.40
2023-01-09T12:55:47.921Z,12.60
2023-01-09T12:58:52.842Z,12.30
2023-01-09T13:01:28.122Z,11.90
2023-01-09T13:04:12.654Z,11.90
2023-01-09T13:06:45.505Z,12.50
2023-01-09T13:09:37.999Z,12.60
2023-01-09T13:12:09.074Z,12.70
2023-01-09T13:14:57.747Z,13.00
2023-01-09T13:17:51.962Z,13.50
2023-01-09T13:20:31.938Z,14.20
2023-01-09T13:22:59.625Z,14.50
2023-01-09T13:25:45.828Z,14.80
2023-01-09T13:28:20.471Z,14.80
2023-01-09T13:30:58.529Z,14.90
2023-01-09T13:33:29.751Z,14.70
2023-01-09T13:36:00.159Z,14.80
2023-01-09T13:38:28.816Z,14.50
2023-01-09T13:41:29.465Z,14.50
2023-01-09T13:44:03.324Z,14.30
2023-01-09T13:46:55.553Z,14.50
2023-01-09T13:49:40.369Z,14.20
2023-01-09T13:52:25.776Z,14.10
2023-01-09T13:54:55.337Z,13.90
2023-01-09T13:57:31.981Z,13.30
2023-01-09T14:00:19.311Z,13.10
2023-01-09T14:02:46.716Z,12.40
2023-01-09T14:05:15.460Z,12.60
2023-01-09T14:07:49.472Z,11.50
2023-01-09T14:10:25.638Z,11.00
2023-01-09T14:12:54.309Z,11.50
2023-01-09T14:15:36.404Z,11.30
2023-01-09T14:18:05.269Z,11.50
2023-01-09T14:20:37.997Z,11.10
2023-01-09T14:23:28.094Z,11.10
2023-01-09T14:25:52.665Z,11.00
2023-01-09T14:28:22.000Z,10.60
2023-01-09T14:30:54.354Z,10.90
2023-01-09T14:33:21.651Z,11.20
2023-01-09T14:35:52.590Z,11.30
2023-01-09T14:38:49.469Z,11.10
2023-01-09T14:42:05.530Z,10.90
2023-01-09T14:45:07.036Z,10.50
2023-01-09T14:47:40.345Z,10.70
2023-01-09T14:50:07.275Z,10.90
2023-01-09T14:52:46.569Z,11.10
2023-01-09T14:55:35.648Z,11.10
2023-01-09T14:58:27.653Z,11.10
2023-01-09T15:01:15.471Z,11.00
2023-01-09T15:03:46.623Z,10.80
2023-01-09T15:06:24.319Z,10.60
2023-01-09T15:09:04.794Z,11.00
2023-01-09T15:11:32.535Z,11.00
2023-01-09T15:14:05.240Z,10.70
2023-01-09T15:16:32.112Z,10.90
2023-01-09T15:19:01.435Z,10.90
2023-01-09T15:21:31.026Z,11.00
2023-01-09T15:24:21.466Z,10.90
2023-01-09T15:27:01.061Z,10.70
2023-01-09T15:29:28.583Z,10.30
2023-01-09T15:32:18.018Z,9.90
2023-01-09T15:34:46.182Z,9.50
2023-01-09T15:37:33.469Z,9.20
2023-01-09T15:40:01.994Z,9.10
2023-01-09T15:42:50.168Z,9.00
2023-01-09T15:45:42.412Z,8.80
2023-01-09T15:48:18.166Z,8.80
2023-01-09T15:50:45.727Z,8.80
2023-01-09T15:53:14.957Z,8.80
2023-01-09T15:55:42.010Z,8.90
2023-01-09T15:58:37.325Z,8.80
2023-01-09T16:01:16.865Z,8.80
2023-01-09T16:03:43.512Z,8.90
2023-01-09T16:06:15.711Z,8.70
2023-01-09T16:08:52.064Z,8.60
2023-01-09T16:11:42.108Z,8.60
2023-01-09T16:14:18.081Z,8.50
2023-01-09T16:16:46.207Z,8.40
2023-01-09T16:19:43.577Z,8.40
2023-01-09T16:22:26.342Z,8.50
2023-01-09T16:24:54.321Z,8.50
2023-01-09T16:27:26.959Z,8.30
2023-01-09T16:29:57.851Z,8.40
2023-01-09T16:32:33.442Z,8.30
2023-01-09T16:35:06.486Z,8.30
2023-01-09T16:37:33.750Z,8.30
2023-01-09T16:40:18.491Z,8.10
2023-01-09T16:43:00.873Z,8.10
2023-01-09T16:45:37.953Z,7.90
2023-01-09T16:48:16.143Z,7.80
2023-01-09T16:50:43.175Z,7.60
2023-01-09T16:53:18.867Z,7.60
2023-01-09T16:55:46.202Z,7.50
2023-01-09T16:58:18.788Z,7.50
2023-01-09T17:00:45.648Z,7.50
2023-01-09T17:03:17.451Z,7.50
2023-01-09T17:05:44.231Z,7.60
2023-01-09T17:08:25.919Z,7.70
2023-01-09T17:10:53.625Z,8.20
2023-01-09T17:13:20.341Z,8.20
2023-01-09T17:15:47.341Z,8.20
2023-01-09T17:18:16.361Z,8.30
2023-01-09T17:20:49.938Z,8.40
2023-01-09T17:23:17.237Z,8.60
2023-01-09T17:26:02.744Z,8.40
2023-01-09T17:28:32.972Z,8.10
2023-01-09T17:31:00.708Z,7.70
2023-01-09T17:33:31.196Z,7.60
2023-01-09T17:35:58.028Z,7.50
2023-01-09T17:38:24.932Z,7.40
2023-01-09T17:40:52.283Z,7.40
2023-01-09T17:43:18.859Z,7.40
2023-01-09T17:45:45.779Z,7.40
2023-01-09T17:48:20.192Z,7.30
2023-01-09T17:50:47.559Z,7.30
2023-01-09T17:53:15.188Z,7.30
2023-01-09T17:55:42.351Z,7.30
2023-01-09T17:58:24.124Z,7.40
2023-01-09T18:00:50.761Z,7.30
2023-01-09T18:03:17.290Z,7.30
2023-01-09T18:05:45.507Z,7.30
2023-01-09T18:08:15.331Z,7.40
2023-01-09T18:10:42.967Z,7.20
2023-01-09T18:13:10.885Z,7.10
2023-01-09T18:15:39.557Z,7.00
2023-01-09T18:18:06.188Z,7.00
2023-01-09T18:20:33.142Z,7.00
2023-01-09T18:22:59.739Z,7.00
2023-01-09T18:25:26.303Z,7.00
2023-01-09T18:27:52.858Z,7.00
2023-01-09T18:30:19.564Z,7.00
2023-01-09T18:32:46.168Z,7.00
2023-01-09T18:35:12.692Z,7.00
2023-01-09T18:37:39.240Z,7.10
2023-01-09T18:40:06.302Z,7.10
2023-01-09T18:42:32.822Z,7.30
2023-01-09T18:44:59.357Z,7.20
2023-01-09T18:47:25.887Z,7.10
2023-01-09T18:49:52.570Z,7.00
2023-01-09T18:52:19.333Z,7.10
2023-01-09T18:54:45.949Z,7.10
2023-01-09T18:57:12.498Z,7.00
2023-01-09T18:59:39.061Z,7.00
2023-01-09T19:02:06.855Z,7.10
2023-01-09T19:04:33.422Z,7.20
2023-01-09T19:07:00.172Z,7.50
2023-01-09T19:09:26.746Z,7.60
2023-01-09T19:11:53.453Z,7.40
2023-01-09T19:14:20.077Z,7.30
2023-01-09T19:16:46.716Z,7.40
2023-01-09T19:19:13.597Z,7.20
2023-01-09T19:21:40.235Z,7.40
2023-01-09T19:24:07.087Z,7.40
2023-01-09T19:26:33.622Z,7.60
2023-01-09T19:29:00.803Z,7.50
2023-01-09T19:31:28.982Z,7.40
2023-01-09T19:33:58.907Z,7.10
2023-01-09T19:36:26.377Z,7.00
2023-01-09T19:38:59.601Z,7.00
2023-01-09T19:41:26.986Z,7.10
2023-01-09T19:43:53.826Z,7.00
2023-01-09T19:46:23.969Z,7.10
2023-01-09T19:48:51.813Z,7.40
2023-01-09T19:51:20.384Z,7.30
2023-01-09T19:54:08.179Z,7.30
2023-01-09T19:56:45.233Z,7.10
2023-01-09T19:59:13.543Z,7.20
2023-01-09T20:01:41.691Z,7.30
2023-01-09T20:04:13.405Z,7.30
2023-01-09T20:06:42.280Z,7.40
2023-01-09T20:09:11.017Z,7.70
2023-01-09T20:11:40.013Z,7.70
2023-01-09T20:14:11.335Z,7.60
2023-01-09T20:16:38.259Z,7.40
2023-01-09T20:19:07.232Z,7.40
2023-01-09T20:21:35.222Z,7.60
2023-01-09T20:24:02.609Z,8.00
2023-01-09T20:26:30.170Z,8.20
2023-01-09T20:28:57.206Z,8.30
2023-01-09T20:31:27.840Z,8.50
2023-01-09T20:33:55.026Z,8.40
2023-01-09T20:36:27.262Z,8.00
2023-01-09T20:38:56.810Z,7.40
2023-01-09T20:41:23.866Z,7.20
2023-01-09T20:43:53.953Z,7.20
2023-01-09T20:46:23.603Z,7.50
2023-01-09T20:48:50.357Z,7.80
2023-01-09T20:51:17.092Z,8.20
2023-01-09T20:53:55.630Z,8.50
2023-01-09T20:56:30.032Z,8.30
2023-01-09T20:58:58.144Z,8.20
2023-01-09T21:01:25.576Z,7.70
2023-01-09T21:03:53.296Z,7.30
2023-01-09T21:06:21.761Z,7.10
2023-01-09T21:08:50.707Z,6.90
2023-01-09T21:11:17.797Z,6.80
2023-01-09T21:13:44.398Z,6.70
2023-01-09T21:16:13.479Z,6.70
2023-01-09T21:18:40.564Z,6.70
2023-01-09T21:21:15.923Z,6.70
2023-01-09T21:23:51.789Z,6.80
2023-01-09T21:26:22.281Z,6.80
2023-01-09T21:28:49.928Z,6.80
2023-01-09T21:31:19.379Z,7.00
2023-01-09T21:33:46.605Z,6.80
2023-01-09T21:36:13.602Z,6.90
2023-01-09T21:38:40.391Z,6.80
2023-01-09T21:41:25.714Z,6.80
2023-01-09T21:44:10.985Z,6.80
2023-01-09T21:46:52.672Z,6.80
2023-01-09T21:49:20.540Z,6.80
2023-01-09T21:51:47.408Z,6.90
2023-01-09T21:54:14.295Z,6.90
2023-01-09T21:56:40.963Z,6.90
2023-01-09T21:59:07.693Z,6.90
2023-01-09T22:01:34.285Z,6.90
2023-01-09T22:04:00.895Z,7.00
2023-01-09T22:06:28.455Z,6.90
2023-01-09T22:08:55.921Z,6.90
2023-01-09T22:11:25.612Z,7.10
2023-01-09T22:13:52.131Z,7.30
2023-01-09T22:16:19.147Z,7.10
2023-01-09T22:18:45.893Z,7.10
2023-01-09T22:21:12.647Z,6.90
2023-01-09T22:23:39.198Z,7.00
2023-01-09T22:26:13.433Z,7.10
2023-01-09T22:28:40.631Z,7.00
2023-01-09T22:31:28.338Z,7.20
2023-01-09T22:33:59.305Z,7.20
2023-01-09T22:36:27.884Z,7.20
2023-01-09T22:38:55.958Z,7.20
2023-01-09T22:41:24.371Z,7.20
2023-01-09T22:43:51.246Z,7.20
2023-01-09T22:46:18.044Z,7.30
2023-01-09T22:48:44.678Z,7.20
2023-01-09T22:51:20.045Z,7.00
2023-01-09T22:53:47.161Z,7.00
2023-01-09T22:56:16.136Z,7.20
2023-01-09T22:58:42.916Z,7.20
2023-01-09T23:01:13.246Z,7.20
2023-01-09T23:03:40.333Z,7.30
2023-01-09T23:06:11.993Z,7.10
2023-01-09T23:08:39.115Z,7.10
2023-01-09T23:11:07.834Z,7.00
2023-01-09T23:13:34.466Z,7.00
2023-01-09T23:16:01.754Z,6.90
2023-01-09T23:18:28.849Z,6.90
2023-01-09T23:20:58.870Z,6.90
2023-01-09T23:23:27.342Z,6.90
2023-01-09T23:26:00.040Z,6.90
2023-01-09T23:28:27.290Z,7.10
2023-01-09T23:30:54.213Z,7.00
2023-01-09T23:33:21.151Z,7.10
2023-01-09T23:35:48.127Z,7.10
2023-01-09T23:38:15.415Z,7.20
2023-01-09T23:40:42.196Z,7.30
2023-01-09T23:43:13.585Z,7.10
2023-01-09T23:45:41.513Z,7.00
2023-01-09T23:48:10.020Z,6.90
2023-01-09T23:50:37.059Z,6.90
2023-01-09T23:53:04.635Z,6.90
2023-01-09T23:55:31.364Z,7.00
2023-01-09T23:57:58.001Z,6.90
